Time;durP1;ratioP1;P1;durP2;ratioP2;P2;SDS_P1;SDS_P2;PMS_P1;PMS_P2;Temp;Humidity;BMP_temperature;BMP_pressure;BME280_temperature;BME280_humidity;BME280_pressure;Samples;Min_cycle;Max_cycle;Signal;HPM_P1;HPM_P2
2023/12/04 16:01:18;;;;;;;;;39.33;37.00;;;;;;;;5106899;27;13379;-78
2023/12/04 16:03:43;;;;;;;;;30.67;28.00;;;;;;;;5107446;28;8811;-80
2023/12/04 16:06:08;;;;;;;;;25.67;24.00;;;;;;;;5108549;28;8784;-79
2023/12/04 16:08:34;;;;;;;;;31.33;28.33;;;;;;;;5108641;28;8801;-76
2023/12/04 16:10:59;;;;;;;;;32.33;27.67;;;;;;;;5107563;28;8795;-78
2023/12/04 16:13:24;;;;;;;;;28.00;26.33;;;;;;;;5108777;28;8906;-81
2023/12/04 16:15:50;;;;;;;;;34.67;26.33;;;;;;;;5107443;28;8921;-83
2023/12/04 16:18:16;;;;;;;;;38.67;32.00;;;;;;;;5108358;28;8772;-84
2023/12/04 16:20:41;;;;;;;;;28.00;25.00;;;;;;;;5108108;28;8799;-81
2023/12/04 16:23:07;;;;;;;;;33.00;30.33;;;;;;;;5108264;28;8811;-82
2023/12/04 16:25:33;;;;;;;;;34.00;29.67;;;;;;;;5070397;27;8843;-78
2023/12/04 16:27:58;;;;;;;;;37.00;33.33;;;;;;;;5096848;28;8786;-81
2023/12/04 16:30:24;;;;;;;;;33.33;30.00;;;;;;;;5087975;28;8813;-76
2023/12/04 16:32:51;;;;;;;;;29.67;29.33;;;;;;;;5090201;28;8829;-75
2023/12/04 16:35:17;;;;;;;;;46.00;40.00;;;;;;;;5086401;28;8814;-78
2023/12/04 16:37:42;;;;;;;;;49.00;45.00;;;;;;;;5087575;28;8896;-79
2023/12/04 16:40:08;;;;;;;;;49.67;38.33;;;;;;;;5086282;28;8818;-81
2023/12/04 16:42:33;;;;;;;;;56.33;45.00;;;;;;;;5087635;28;8801;-79
2023/12/04 16:44:58;;;;;;;;;50.33;42.33;;;;;;;;5087481;28;8786;-79
2023/12/04 16:47:23;;;;;;;;;44.00;37.67;;;;;;;;5087293;28;8805;-77
2023/12/04 16:49:49;;;;;;;;;58.67;47.33;;;;;;;;5105255;28;8787;-80
2023/12/04 16:52:15;;;;;;;;;46.00;41.67;;;;;;;;5107677;28;8792;-82
2023/12/04 16:54:41;;;;;;;;;51.33;39.67;;;;;;;;5107546;28;8779;-82
2023/12/04 16:57:09;;;;;;;;;57.00;48.00;;;;;;;;5102254;28;8803;-81
2023/12/04 16:59:35;;;;;;;;;55.00;46.00;;;;;;;;5086878;28;8845;-85
2023/12/04 17:02:00;;;;;;;;;49.00;42.67;;;;;;;;5087076;28;8798;-85
2023/12/04 17:04:25;;;;;;;;;46.67;43.67;;;;;;;;5086619;28;8779;-86
2023/12/04 17:06:50;;;;;;;;;58.00;46.67;;;;;;;;5086831;28;8783;-82
2023/12/04 17:09:16;;;;;;;;;53.33;44.33;;;;;;;;5086750;28;8811;-80
2023/12/04 17:11:42;;;;;;;;;52.33;47.00;;;;;;;;5078325;28;8783;-81
2023/12/04 17:14:07;;;;;;;;;49.33;41.33;;;;;;;;5073261;28;8913;-81
2023/12/04 17:16:34;;;;;;;;;55.33;44.00;;;;;;;;5073120;28;8833;-79
2023/12/04 17:18:59;;;;;;;;;51.33;46.00;;;;;;;;5085192;28;8927;-80
2023/12/04 17:21:24;;;;;;;;;52.00;45.33;;;;;;;;5093272;28;8795;-80
2023/12/04 17:23:50;;;;;;;;;47.00;44.00;;;;;;;;5091930;28;9400;-84
2023/12/04 17:27:47;;;;;;;;;48.67;44.00;;;;;;;;5065802;28;13527;-77
2023/12/04 17:30:13;;;;;;;;;45.33;42.33;;;;;;;;5067772;28;8823;-79
2023/12/04 17:32:38;;;;;;;;;50.67;42.67;;;;;;;;5066286;28;8833;-78
2023/12/04 17:35:04;;;;;;;;;55.67;47.00;;;;;;;;5066883;28;8925;-79
2023/12/04 17:37:29;;;;;;;;;54.00;41.67;;;;;;;;5066309;28;8813;-79
2023/12/04 17:39:55;;;;;;;;;49.67;41.67;;;;;;;;5067561;28;8797;-79
2023/12/04 17:42:20;;;;;;;;;42.00;40.00;;;;;;;;5066903;28;9021;-86
2023/12/04 17:44:45;;;;;;;;;46.00;44.00;;;;;;;;5066954;28;8817;-80
2023/12/04 17:47:11;;;;;;;;;58.00;46.33;;;;;;;;5067516;28;8935;-78
2023/12/04 17:49:37;;;;;;;;;41.33;41.00;;;;;;;;5068950;28;8789;-80
2023/12/04 17:52:02;;;;;;;;;41.00;38.67;;;;;;;;5067505;28;8913;-82
2023/12/04 17:54:28;;;;;;;;;51.67;42.67;;;;;;;;5067258;28;8785;-78
2023/12/04 17:56:53;;;;;;;;;53.33;44.33;;;;;;;;5068546;28;8841;-80
2023/12/04 17:59:18;;;;;;;;;51.33;42.67;;;;;;;;5067325;28;8817;-77
2023/12/04 18:01:44;;;;;;;;;49.33;43.67;;;;;;;;5067285;28;8863;-76
2023/12/04 18:04:09;;;;;;;;;58.00;46.67;;;;;;;;5067228;28;8926;-74
2023/12/04 18:06:35;;;;;;;;;54.33;46.67;;;;;;;;5066870;28;8913;-76
2023/12/04 18:09:00;;;;;;;;;47.67;43.33;;;;;;;;5065647;28;9653;-77
2023/12/04 18:11:25;;;;;;;;;57.33;47.67;;;;;;;;5066844;28;8846;-75
2023/12/04 18:13:52;;;;;;;;;49.33;47.33;;;;;;;;5069262;28;8777;-74
2023/12/04 18:16:19;;;;;;;;;56.00;46.67;;;;;;;;5066948;28;8793;-75
2023/12/04 18:18:45;;;;;;;;;51.67;44.67;;;;;;;;5066927;28;8793;-73
2023/12/04 18:21:10;;;;;;;;;50.67;43.00;;;;;;;;5066809;28;8805;-74
2023/12/04 18:23:38;;;;;;;;;48.00;43.67;;;;;;;;5066568;28;8790;-77
2023/12/04 18:26:03;;;;;;;;;41.67;37.67;;;;;;;;5066259;28;8886;-76
2023/12/04 18:28:28;;;;;;;;;42.33;37.67;;;;;;;;5066840;28;8810;-78
2023/12/04 18:30:54;;;;;;;;;35.00;31.33;;;;;;;;5066053;28;8842;-76
2023/12/04 18:33:21;;;;;;;;;61.67;50.00;;;;;;;;5064725;28;8900;-76
2023/12/04 18:35:46;;;;;;;;;44.67;40.67;;;;;;;;5067337;28;8811;-74
2023/12/04 18:38:15;;;;;;;;;42.33;42.33;;;;;;;;5058468;28;8908;-75
2023/12/04 18:40:40;;;;;;;;;46.33;41.33;;;;;;;;5053203;28;8778;-75
2023/12/04 18:43:05;;;;;;;;;25.67;22.00;;;;;;;;5053352;28;9586;-75
2023/12/04 18:45:31;;;;;;;;;52.67;40.33;;;;;;;;5054542;28;8794;-75
2023/12/04 18:47:59;;;;;;;;;49.33;44.00;;;;;;;;5053278;28;8789;-75
2023/12/04 18:50:24;;;;;;;;;50.33;43.00;;;;;;;;5053132;28;8905;-75
2023/12/04 18:52:50;;;;;;;;;36.67;31.33;;;;;;;;5052267;28;8904;-77
2023/12/04 18:55:15;;;;;;;;;42.67;34.67;;;;;;;;5050153;28;8813;-75
2023/12/04 18:57:40;;;;;;;;;50.33;38.00;;;;;;;;5051843;28;8929;-81
2023/12/04 19:00:06;;;;;;;;;46.00;36.67;;;;;;;;5051277;28;8797;-79
2023/12/04 19:02:31;;;;;;;;;23.67;19.00;;;;;;;;5052736;28;8789;-78
2023/12/04 19:04:56;;;;;;;;;37.33;34.67;;;;;;;;5050866;28;8890;-83
2023/12/04 19:07:22;;;;;;;;;38.33;33.67;;;;;;;;5053640;28;8829;-86
2023/12/04 19:09:47;;;;;;;;;38.00;33.00;;;;;;;;5055030;28;8803;-84
2023/12/04 19:12:13;;;;;;;;;38.33;33.00;;;;;;;;5068956;28;8829;-83
2023/12/04 19:14:39;;;;;;;;;36.00;32.67;;;;;;;;5052664;28;9037;-82
2023/12/04 19:17:05;;;;;;;;;31.33;27.67;;;;;;;;5051152;28;8936;-84
2023/12/04 19:19:31;;;;;;;;;35.00;30.67;;;;;;;;5051159;28;8841;-83
2023/12/04 19:21:56;;;;;;;;;32.33;29.33;;;;;;;;5052761;28;8812;-85
2023/12/04 19:24:22;;;;;;;;;33.67;32.00;;;;;;;;5054543;28;8789;-86
2023/12/04 19:26:47;;;;;;;;;35.00;31.00;;;;;;;;5072453;28;9684;-80
2023/12/04 19:29:12;;;;;;;;;31.00;30.33;;;;;;;;5070951;28;8813;-81
2023/12/04 19:31:38;;;;;;;;;38.00;28.67;;;;;;;;5052009;28;8847;-79
2023/12/04 19:34:03;;;;;;;;;32.00;29.67;;;;;;;;5052469;28;8789;-76
2023/12/04 19:36:29;;;;;;;;;34.33;28.00;;;;;;;;5069917;28;8830;-76
2023/12/04 19:38:54;;;;;;;;;37.00;31.00;;;;;;;;5072290;28;8794;-79
2023/12/04 19:41:28;;;;;;;;;31.33;25.00;;;;;;;;5069366;28;8887;-76
2023/12/04 19:43:53;;;;;;;;;31.00;26.33;;;;;;;;5072363;28;8859;-76
2023/12/04 19:46:19;;;;;;;;;33.00;30.67;;;;;;;;5071538;28;8854;-76
2023/12/04 19:48:44;;;;;;;;;28.67;24.67;;;;;;;;5057904;28;8809;-76
2023/12/04 19:51:09;;;;;;;;;36.33;31.00;;;;;;;;5064314;28;8826;-76
2023/12/04 19:53:34;;;;;;;;;36.67;30.67;;;;;;;;5053210;28;8801;-77
2023/12/04 19:56:00;;;;;;;;;37.00;28.33;;;;;;;;5050565;28;8821;-72
2023/12/04 19:58:25;;;;;;;;;39.67;33.33;;;;;;;;5051678;28;8809;-72
2023/12/04 20:00:50;;;;;;;;;33.33;30.00;;;;;;;;5050763;28;8797;-72
2023/12/04 20:03:16;;;;;;;;;29.33;28.00;;;;;;;;5051933;28;8793;-72
2023/12/04 20:05:41;;;;;;;;;33.67;33.00;;;;;;;;5051543;28;8820;-72
2023/12/04 20:08:06;;;;;;;;;36.67;33.33;;;;;;;;5051787;28;8769;-71
2023/12/04 20:10:32;;;;;;;;;45.33;42.33;;;;;;;;5051753;28;9511;-72
2023/12/04 20:12:58;;;;;;;;;51.00;44.00;;;;;;;;5051939;28;8793;-72
2023/12/04 20:15:23;;;;;;;;;62.33;48.00;;;;;;;;5051690;28;9393;-72
2023/12/04 20:17:48;;;;;;;;;42.00;38.33;;;;;;;;5051714;28;8898;-72
2023/12/04 20:20:17;;;;;;;;;38.33;36.00;;;;;;;;5051387;28;8781;-72
2023/12/04 20:22:43;;;;;;;;;52.67;45.33;;;;;;;;5051865;28;8773;-72
2023/12/04 20:25:08;;;;;;;;;56.00;47.00;;;;;;;;5051735;28;8820;-72
2023/12/04 20:27:33;;;;;;;;;50.67;45.67;;;;;;;;5051331;28;9652;-72
2023/12/04 20:29:58;;;;;;;;;57.67;48.00;;;;;;;;5050149;28;8877;-74
2023/12/04 20:32:24;;;;;;;;;59.33;47.33;;;;;;;;5051327;28;8781;-75
2023/12/04 20:34:49;;;;;;;;;60.67;50.33;;;;;;;;5050871;28;8905;-75
2023/12/04 20:37:14;;;;;;;;;49.33;43.00;;;;;;;;5051299;28;8829;-72
2023/12/04 20:39:40;;;;;;;;;45.33;43.00;;;;;;;;5051348;28;8789;-72
2023/12/04 20:42:05;;;;;;;;;54.00;45.33;;;;;;;;5051276;28;9358;-72
2023/12/04 20:44:30;;;;;;;;;58.33;49.00;;;;;;;;5049881;28;9559;-72
2023/12/04 20:46:56;;;;;;;;;53.00;44.00;;;;;;;;5049825;28;8825;-72
2023/12/04 20:49:23;;;;;;;;;55.67;47.00;;;;;;;;5051166;28;8793;-72
2023/12/04 20:51:49;;;;;;;;;58.00;48.33;;;;;;;;5051195;28;8809;-72
2023/12/04 20:54:14;;;;;;;;;51.67;45.33;;;;;;;;5051029;28;8904;-73
2023/12/04 20:56:39;;;;;;;;;61.00;48.00;;;;;;;;5049714;28;8801;-72
2023/12/04 20:59:05;;;;;;;;;63.33;48.33;;;;;;;;5050897;28;9597;-72
2023/12/04 21:01:30;;;;;;;;;56.00;48.00;;;;;;;;5050686;28;8904;-72
2023/12/04 21:03:56;;;;;;;;;60.00;47.67;;;;;;;;5050811;28;8782;-72
2023/12/04 21:06:21;;;;;;;;;53.00;46.67;;;;;;;;5050517;28;9539;-72
2023/12/04 21:08:47;;;;;;;;;61.67;48.33;;;;;;;;5050859;28;9498;-72
2023/12/04 21:11:12;;;;;;;;;61.33;49.00;;;;;;;;5050805;28;8812;-72
2023/12/04 21:13:37;;;;;;;;;59.33;48.00;;;;;;;;5049511;28;8809;-72
2023/12/04 21:16:04;;;;;;;;;49.00;41.00;;;;;;;;5050764;28;8919;-72
2023/12/04 21:18:29;;;;;;;;;62.33;49.67;;;;;;;;5050699;28;9563;-72
2023/12/04 21:20:55;;;;;;;;;56.00;48.33;;;;;;;;5050537;28;8786;-72
2023/12/04 21:23:20;;;;;;;;;60.33;47.33;;;;;;;;5050641;28;8778;-72
2023/12/04 21:25:45;;;;;;;;;65.33;49.67;;;;;;;;5049095;28;8912;-72
2023/12/04 21:28:11;;;;;;;;;54.67;46.00;;;;;;;;5050696;28;8808;-72
2023/12/04 21:30:37;;;;;;;;;53.33;43.00;;;;;;;;5049272;28;8797;-72
2023/12/04 21:33:02;;;;;;;;;51.33;43.00;;;;;;;;5050489;28;8778;-72
2023/12/04 21:35:28;;;;;;;;;47.67;42.00;;;;;;;;5050369;28;9640;-71
2023/12/04 21:37:54;;;;;;;;;51.67;44.33;;;;;;;;5050527;28;8863;-71
2023/12/04 21:40:19;;;;;;;;;55.33;47.67;;;;;;;;5050531;28;9554;-71
2023/12/04 21:42:44;;;;;;;;;55.67;47.33;;;;;;;;5050482;28;8785;-71
2023/12/04 21:45:10;;;;;;;;;52.33;43.67;;;;;;;;5050367;28;8797;-71
2023/12/04 21:47:35;;;;;;;;;55.33;46.33;;;;;;;;5050254;28;8845;-72
2023/12/04 21:50:01;;;;;;;;;50.67;44.00;;;;;;;;5050254;28;8863;-72
2023/12/04 21:52:26;;;;;;;;;56.67;42.67;;;;;;;;5050427;28;8773;-72
2023/12/04 21:54:51;;;;;;;;;51.33;43.00;;;;;;;;5050371;28;8785;-72
2023/12/04 21:57:16;;;;;;;;;44.67;39.33;;;;;;;;5050377;28;8812;-74
2023/12/04 21:59:42;;;;;;;;;46.00;42.67;;;;;;;;5050250;28;8782;-74
2023/12/04 22:02:07;;;;;;;;;51.00;44.00;;;;;;;;5050251;28;8785;-73
2023/12/04 22:04:32;;;;;;;;;49.00;43.00;;;;;;;;5050050;28;8812;-73
2023/12/04 22:06:58;;;;;;;;;50.00;41.00;;;;;;;;5050052;28;8841;-73
2023/12/04 22:09:23;;;;;;;;;45.67;41.33;;;;;;;;5048972;28;8895;-76
2023/12/04 22:11:48;;;;;;;;;43.33;37.00;;;;;;;;5048917;28;9006;-77
2023/12/04 22:14:13;;;;;;;;;48.33;41.33;;;;;;;;5051935;28;9631;-77
2023/12/04 22:16:39;;;;;;;;;42.00;38.67;;;;;;;;5053894;28;8789;-75
2023/12/04 22:19:04;;;;;;;;;49.33;42.00;;;;;;;;5053962;28;8823;-75
2023/12/04 22:21:29;;;;;;;;;43.33;38.33;;;;;;;;5053759;28;8774;-75
2023/12/04 22:23:55;;;;;;;;;42.00;37.33;;;;;;;;5053999;28;8785;-75
2023/12/04 22:26:20;;;;;;;;;38.67;36.33;;;;;;;;5052377;28;8971;-75
2023/12/04 22:28:45;;;;;;;;;42.67;38.67;;;;;;;;5053936;28;8796;-75
2023/12/04 22:31:13;;;;;;;;;43.33;39.67;;;;;;;;5052418;28;8843;-75
2023/12/04 22:33:38;;;;;;;;;44.33;40.00;;;;;;;;5053682;28;8916;-75
2023/12/04 22:36:03;;;;;;;;;33.00;28.67;;;;;;;;5053421;28;8828;-75
2023/12/04 22:38:29;;;;;;;;;43.33;37.33;;;;;;;;5053562;28;8813;-75
2023/12/04 22:40:54;;;;;;;;;39.00;37.00;;;;;;;;5053582;28;8773;-74
2023/12/04 22:43:19;;;;;;;;;33.00;30.33;;;;;;;;5053489;28;8790;-75
2023/12/04 22:45:45;;;;;;;;;41.33;39.33;;;;;;;;5052018;28;8979;-72
2023/12/04 22:48:10;;;;;;;;;49.33;41.33;;;;;;;;5053190;28;8852;-73
2023/12/04 22:50:35;;;;;;;;;40.33;34.00;;;;;;;;5053196;28;8843;-72
2023/12/04 22:53:00;;;;;;;;;42.33;39.67;;;;;;;;5053252;28;8801;-73
2023/12/04 22:55:26;;;;;;;;;41.00;37.00;;;;;;;;5053199;28;8785;-73
2023/12/04 22:57:51;;;;;;;;;33.67;31.00;;;;;;;;5053285;28;9651;-73
2023/12/04 23:00:19;;;;;;;;;43.33;39.67;;;;;;;;5051772;28;8809;-72
2023/12/04 23:02:45;;;;;;;;;44.00;39.33;;;;;;;;5053061;28;8804;-72
2023/12/04 23:05:10;;;;;;;;;36.33;33.67;;;;;;;;5051714;28;8805;-73
2023/12/04 23:07:36;;;;;;;;;42.33;39.00;;;;;;;;5052868;28;8801;-73
2023/12/04 23:10:01;;;;;;;;;39.67;34.00;;;;;;;;5052961;28;8896;-73
2023/12/04 23:12:27;;;;;;;;;40.67;36.33;;;;;;;;5052991;28;8793;-72
2023/12/04 23:14:52;;;;;;;;;39.00;36.33;;;;;;;;5052799;28;8774;-72
2023/12/04 23:17:17;;;;;;;;;41.67;34.00;;;;;;;;5051555;28;8805;-73
2023/12/04 23:19:42;;;;;;;;;37.00;28.67;;;;;;;;5052781;28;8827;-72
2023/12/04 23:22:08;;;;;;;;;36.67;34.33;;;;;;;;5052742;28;8797;-73
2023/12/04 23:24:33;;;;;;;;;28.00;27.00;;;;;;;;5052489;28;9529;-73
2023/12/04 23:26:59;;;;;;;;;45.33;40.00;;;;;;;;5052426;28;8895;-73
2023/12/04 23:29:24;;;;;;;;;38.67;33.67;;;;;;;;5052558;28;8792;-73
2023/12/04 23:31:49;;;;;;;;;42.00;36.33;;;;;;;;5051173;28;8825;-73
2023/12/04 23:34:14;;;;;;;;;37.67;33.67;;;;;;;;5052447;28;8881;-73
2023/12/04 23:36:40;;;;;;;;;32.33;29.00;;;;;;;;5051007;28;8809;-73
2023/12/04 23:39:05;;;;;;;;;30.00;27.67;;;;;;;;5052438;28;8781;-72
2023/12/04 23:41:30;;;;;;;;;37.67;33.67;;;;;;;;5052426;28;8903;-72
2023/12/04 23:43:55;;;;;;;;;32.33;30.67;;;;;;;;5052135;28;8885;-73
2023/12/04 23:46:21;;;;;;;;;38.00;34.67;;;;;;;;5050879;28;8853;-72
2023/12/04 23:48:46;;;;;;;;;38.33;36.00;;;;;;;;5052198;28;8801;-72
